createdAt,value
2018-11-03T00:02:48.552Z,639.03
2018-11-03T00:05:17.590Z,334.50
2018-11-03T00:07:46.956Z,257.53
2018-11-03T01:02:40.529Z,302.03
2018-11-03T01:05:09.975Z,251.97
2018-11-03T01:07:39.592Z,184.53
2018-11-03T02:02:37.087Z,162.37
2018-11-03T02:05:06.645Z,176.87
2018-11-03T02:07:36.325Z,213.87
2018-11-03T03:02:38.017Z,116.60
2018-11-03T03:05:07.781Z,132.10
2018-11-03T03:07:36.922Z,157.40
2018-11-03T04:02:51.990Z,142.50
2018-11-03T04:05:20.821Z,143.03
2018-11-03T04:07:49.741Z,118.27
2018-11-03T04:10:18.570Z,145.87
2018-11-03T05:02:42.562Z,179.37
2018-11-03T05:05:11.292Z,131.07
2018-11-03T05:07:40.201Z,163.20
2018-11-03T05:10:10.000Z,131.40
2018-11-03T06:02:43.284Z,121.17
2018-11-03T06:05:12.196Z,161.23
2018-11-03T06:07:40.952Z,105.77
2018-11-03T06:10:10.498Z,96.22
2018-11-03T07:02:48.178Z,109.10
2018-11-03T07:05:17.072Z,93.93
2018-11-03T07:07:45.693Z,100.97
2018-11-03T08:02:37.169Z,59.40
2018-11-03T08:05:06.697Z,57.07
2018-11-03T08:07:35.519Z,60.33
2018-11-03T08:10:04.479Z,53.60
2018-11-03T09:02:37.105Z,62.87
2018-11-03T09:05:06.132Z,51.60
2018-11-03T09:07:35.595Z,55.37
2018-11-03T09:10:04.942Z,58.57
2018-11-03T10:02:49.892Z,53.57
2018-11-03T10:05:18.799Z,50.37
2018-11-03T10:07:47.656Z,40.07
2018-11-03T11:02:52.243Z,63.63
2018-11-03T11:05:26.699Z,47.70
2018-11-03T11:08:00.965Z,51.60
2018-11-03T12:03:10.422Z,57.10
2018-11-03T12:05:39.413Z,56.03
2018-11-03T12:08:08.357Z,54.20
2018-11-03T12:10:37.221Z,51.13
2018-11-03T13:02:36.912Z,59.70
2018-11-03T13:05:06.426Z,74.37
2018-11-03T13:07:36.532Z,61.10
2018-11-03T13:10:05.923Z,56.07
2018-11-03T14:02:38.951Z,84.50
2018-11-03T14:05:08.322Z,108.87
2018-11-03T14:07:37.824Z,75.90
2018-11-03T15:02:41.319Z,52.80
2018-11-03T15:05:12.608Z,45.10
2018-11-03T15:07:42.287Z,42.07
2018-11-03T16:02:37.630Z,37.07
2018-11-03T16:05:06.591Z,36.50
2018-11-03T16:07:35.579Z,46.47
2018-11-03T16:10:05.073Z,41.03
2018-11-03T17:02:37.081Z,47.07
2018-11-03T17:05:06.190Z,39.73
2018-11-03T17:07:35.030Z,37.03
2018-11-03T17:10:05.317Z,38.87
2018-11-03T18:02:37.533Z,34.10
2018-11-03T18:05:06.659Z,34.37
2018-11-03T18:07:35.511Z,37.70
2018-11-03T18:10:04.825Z,34.50
2018-11-03T19:02:39.958Z,31.57
2018-11-03T19:05:09.094Z,32.10
2018-11-03T19:07:38.160Z,34.97
2018-11-03T20:02:42.223Z,68.57
2018-11-03T20:05:11.717Z,43.60
2018-11-03T20:07:43.079Z,36.97
2018-11-03T21:02:37.446Z,57.23
2018-11-03T21:05:06.818Z,62.60
2018-11-03T21:07:35.900Z,54.93
2018-11-03T21:10:05.837Z,51.00
2018-11-03T22:02:37.640Z,56.50
2018-11-03T22:05:07.645Z,54.30
2018-11-03T22:07:36.422Z,39.63
2018-11-03T22:10:05.852Z,33.40
2018-11-03T23:02:39.064Z,41.43
2018-11-03T23:05:09.102Z,39.90
2018-11-03T23:07:38.017Z,43.00
